sensor_id;sensor_type;location;lat;lon;timestamp;P1;durP1;ratioP1;P2;durP2;ratioP2
75820;SDS011;64454;51.984;9.838;2023-03-11T00:00:28;7.95;;;5.90;;
75820;SDS011;64454;51.984;9.838;2023-03-11T00:02:58;7.18;;;5.38;;
75820;SDS011;64454;51.984;9.838;2023-03-11T00:05:28;6.10;;;4.50;;
75820;SDS011;64454;51.984;9.838;2023-03-11T00:07:57;6.07;;;5.00;;
75820;SDS011;64454;51.984;9.838;2023-03-11T00:10:28;6.97;;;4.95;;
75820;SDS011;64454;51.984;9.838;2023-03-11T00:12:57;6.30;;;4.90;;
75820;SDS011;64454;51.984;9.838;2023-03-11T00:15:25;7.22;;;5.10;;
75820;SDS011;64454;51.984;9.838;2023-03-11T00:17:53;5.57;;;4.32;;
75820;SDS011;64454;51.984;9.838;2023-03-11T00:20:21;5.10;;;4.60;;
75820;SDS011;64454;51.984;9.838;2023-03-11T00:22:51;6.25;;;4.75;;
75820;SDS011;64454;51.984;9.838;2023-03-11T00:25:19;6.20;;;4.80;;
75820;SDS011;64454;51.984;9.838;2023-03-11T00:27:49;5.65;;;4.72;;
75820;SDS011;64454;51.984;9.838;2023-03-11T00:30:17;5.13;;;4.25;;
75820;SDS011;64454;51.984;9.838;2023-03-11T00:32:45;4.55;;;3.75;;
75820;SDS011;64454;51.984;9.838;2023-03-11T00:35:13;5.47;;;4.13;;
75820;SDS011;64454;51.984;9.838;2023-03-11T00:37:44;5.80;;;4.00;;
75820;SDS011;64454;51.984;9.838;2023-03-11T00:40:13;4.47;;;3.70;;
75820;SDS011;64454;51.984;9.838;2023-03-11T00:42:43;4.00;;;3.50;;
75820;SDS011;64454;51.984;9.838;2023-03-11T00:45:13;4.03;;;3.28;;
75820;SDS011;64454;51.984;9.838;2023-03-11T00:47:40;3.95;;;3.30;;
75820;SDS011;64454;51.984;9.838;2023-03-11T00:50:08;4.13;;;3.30;;
75820;SDS011;64454;51.984;9.838;2023-03-11T00:52:41;3.60;;;2.95;;
75820;SDS011;64454;51.984;9.838;2023-03-11T00:55:09;5.20;;;3.13;;
75820;SDS011;64454;51.984;9.838;2023-03-11T00:57:39;3.92;;;3.03;;
75820;SDS011;64454;51.984;9.838;2023-03-11T01:00:06;4.80;;;3.17;;
75820;SDS011;64454;51.984;9.838;2023-03-11T01:02:39;3.67;;;2.70;;
75820;SDS011;64454;51.984;9.838;2023-03-11T01:05:06;3.78;;;2.75;;
75820;SDS011;64454;51.984;9.838;2023-03-11T01:07:34;4.05;;;3.05;;
75820;SDS011;64454;51.984;9.838;2023-03-11T01:10:02;5.03;;;3.00;;
75820;SDS011;64454;51.984;9.838;2023-03-11T01:12:30;3.38;;;2.47;;
75820;SDS011;64454;51.984;9.838;2023-03-11T01:14:57;3.38;;;2.72;;
75820;SDS011;64454;51.984;9.838;2023-03-11T01:17:24;2.60;;;2.20;;
75820;SDS011;64454;51.984;9.838;2023-03-11T01:19:53;2.90;;;2.08;;
75820;SDS011;64454;51.984;9.838;2023-03-11T01:22:19;2.60;;;2.30;;
75820;SDS011;64454;51.984;9.838;2023-03-11T01:24:46;2.65;;;2.10;;
75820;SDS011;64454;51.984;9.838;2023-03-11T01:27:13;3.13;;;2.13;;
75820;SDS011;64454;51.984;9.838;2023-03-11T01:29:40;2.58;;;1.90;;
75820;SDS011;64454;51.984;9.838;2023-03-11T01:32:07;2.60;;;2.00;;
75820;SDS011;64454;51.984;9.838;2023-03-11T01:34:35;2.40;;;2.00;;
75820;SDS011;64454;51.984;9.838;2023-03-11T01:37:04;2.30;;;1.87;;
75820;SDS011;64454;51.984;9.838;2023-03-11T01:39:30;2.60;;;2.10;;
75820;SDS011;64454;51.984;9.838;2023-03-11T01:41:57;3.58;;;2.40;;
75820;SDS011;64454;51.984;9.838;2023-03-11T01:44:24;2.60;;;2.00;;
75820;SDS011;64454;51.984;9.838;2023-03-11T01:50:04;3.25;;;2.40;;
75820;SDS011;64454;51.984;9.838;2023-03-11T01:52:38;2.95;;;2.42;;
75820;SDS011;64454;51.984;9.838;2023-03-11T01:55:08;2.58;;;2.05;;
75820;SDS011;64454;51.984;9.838;2023-03-11T01:57:37;2.20;;;2.00;;
75820;SDS011;64454;51.984;9.838;2023-03-11T02:00:09;3.67;;;2.70;;
75820;SDS011;64454;51.984;9.838;2023-03-11T02:02:40;3.20;;;2.60;;
75820;SDS011;64454;51.984;9.838;2023-03-11T02:05:13;3.50;;;2.40;;
75820;SDS011;64454;51.984;9.838;2023-03-11T02:07:41;4.43;;;2.05;;
75820;SDS011;64454;51.984;9.838;2023-03-11T02:10:09;3.10;;;2.22;;
75820;SDS011;64454;51.984;9.838;2023-03-11T02:12:37;2.90;;;2.58;;
75820;SDS011;64454;51.984;9.838;2023-03-11T02:15:05;2.90;;;2.30;;
75820;SDS011;64454;51.984;9.838;2023-03-11T02:17:34;2.90;;;2.10;;
75820;SDS011;64454;51.984;9.838;2023-03-11T02:20:07;3.90;;;1.90;;
75820;SDS011;64454;51.984;9.838;2023-03-11T02:22:47;3.70;;;2.10;;
75820;SDS011;64454;51.984;9.838;2023-03-11T02:25:17;5.13;;;2.67;;
75820;SDS011;64454;51.984;9.838;2023-03-11T02:27:55;4.30;;;1.90;;
75820;SDS011;64454;51.984;9.838;2023-03-11T02:30:24;2.30;;;2.00;;
75820;SDS011;64454;51.984;9.838;2023-03-11T02:32:52;2.35;;;1.77;;
75820;SDS011;64454;51.984;9.838;2023-03-11T02:35:21;2.75;;;2.20;;
75820;SDS011;64454;51.984;9.838;2023-03-11T02:37:49;4.55;;;2.50;;
75820;SDS011;64454;51.984;9.838;2023-03-11T02:40:32;4.53;;;2.30;;
75820;SDS011;64454;51.984;9.838;2023-03-11T02:43:08;2.40;;;2.08;;
75820;SDS011;64454;51.984;9.838;2023-03-11T02:45:39;4.03;;;2.70;;
75820;SDS011;64454;51.984;9.838;2023-03-11T02:48:09;3.22;;;1.83;;
75820;SDS011;64454;51.984;9.838;2023-03-11T02:50:38;3.45;;;1.85;;
75820;SDS011;64454;51.984;9.838;2023-03-11T02:53:06;2.75;;;1.85;;
75820;SDS011;64454;51.984;9.838;2023-03-11T02:55:34;3.38;;;2.20;;
75820;SDS011;64454;51.984;9.838;2023-03-11T02:58:01;2.10;;;1.90;;
75820;SDS011;64454;51.984;9.838;2023-03-11T03:00:29;2.47;;;2.00;;
75820;SDS011;64454;51.984;9.838;2023-03-11T03:02:56;4.05;;;2.30;;
75820;SDS011;64454;51.984;9.838;2023-03-11T03:05:23;2.85;;;2.15;;
75820;SDS011;64454;51.984;9.838;2023-03-11T03:07:50;2.47;;;2.28;;
75820;SDS011;64454;51.984;9.838;2023-03-11T03:10:17;3.35;;;2.10;;
75820;SDS011;64454;51.984;9.838;2023-03-11T03:12:46;3.55;;;2.13;;
75820;SDS011;64454;51.984;9.838;2023-03-11T03:15:13;4.80;;;2.20;;
75820;SDS011;64454;51.984;9.838;2023-03-11T03:17:42;3.67;;;2.22;;
75820;SDS011;64454;51.984;9.838;2023-03-11T03:20:10;5.10;;;2.17;;
75820;SDS011;64454;51.984;9.838;2023-03-11T03:22:38;3.28;;;1.95;;
75820;SDS011;64454;51.984;9.838;2023-03-11T03:25:07;3.40;;;2.20;;
75820;SDS011;64454;51.984;9.838;2023-03-11T03:27:35;4.30;;;2.50;;
75820;SDS011;64454;51.984;9.838;2023-03-11T03:30:03;3.60;;;2.22;;
75820;SDS011;64454;51.984;9.838;2023-03-11T03:32:33;3.65;;;2.20;;
75820;SDS011;64454;51.984;9.838;2023-03-11T03:35:03;4.78;;;2.30;;
75820;SDS011;64454;51.984;9.838;2023-03-11T03:37:31;5.60;;;2.42;;
75820;SDS011;64454;51.984;9.838;2023-03-11T03:40:00;5.33;;;2.00;;
75820;SDS011;64454;51.984;9.838;2023-03-11T03:42:31;3.60;;;2.00;;
75820;SDS011;64454;51.984;9.838;2023-03-11T03:44:59;3.90;;;2.03;;
75820;SDS011;64454;51.984;9.838;2023-03-11T03:47:26;4.43;;;2.22;;
75820;SDS011;64454;51.984;9.838;2023-03-11T03:49:52;2.63;;;2.05;;
75820;SDS011;64454;51.984;9.838;2023-03-11T03:52:20;2.67;;;2.10;;
75820;SDS011;64454;51.984;9.838;2023-03-11T03:54:47;3.50;;;1.92;;
75820;SDS011;64454;51.984;9.838;2023-03-11T03:57:14;5.63;;;2.40;;
75820;SDS011;64454;51.984;9.838;2023-03-11T03:59:41;7.32;;;2.67;;
75820;SDS011;64454;51.984;9.838;2023-03-11T04:02:08;6.28;;;2.65;;
75820;SDS011;64454;51.984;9.838;2023-03-11T04:04:34;5.20;;;2.00;;
75820;SDS011;64454;51.984;9.838;2023-03-11T04:07:02;8.13;;;2.47;;
75820;SDS011;64454;51.984;9.838;2023-03-11T04:09:31;5.68;;;2.00;;
75820;SDS011;64454;51.984;9.838;2023-03-11T04:11:59;7.05;;;2.20;;
75820;SDS011;64454;51.984;9.838;2023-03-11T04:14:25;3.97;;;2.00;;
75820;SDS011;64454;51.984;9.838;2023-03-11T04:16:52;6.78;;;2.30;;
75820;SDS011;64454;51.984;9.838;2023-03-11T04:19:20;5.23;;;1.90;;
75820;SDS011;64454;51.984;9.838;2023-03-11T04:21:47;7.57;;;2.83;;
75820;SDS011;64454;51.984;9.838;2023-03-11T04:24:16;3.53;;;2.17;;
75820;SDS011;64454;51.984;9.838;2023-03-11T04:26:46;3.85;;;1.70;;
75820;SDS011;64454;51.984;9.838;2023-03-11T04:29:13;9.88;;;2.03;;
75820;SDS011;64454;51.984;9.838;2023-03-11T04:31:42;4.30;;;2.13;;
75820;SDS011;64454;51.984;9.838;2023-03-11T04:34:09;6.15;;;2.30;;
75820;SDS011;64454;51.984;9.838;2023-03-11T04:36:36;5.60;;;2.60;;
75820;SDS011;64454;51.984;9.838;2023-03-11T04:39:03;5.72;;;2.20;;
75820;SDS011;64454;51.984;9.838;2023-03-11T04:41:30;4.20;;;2.40;;
75820;SDS011;64454;51.984;9.838;2023-03-11T04:43:58;5.97;;;2.03;;
75820;SDS011;64454;51.984;9.838;2023-03-11T04:46:25;7.18;;;2.00;;
75820;SDS011;64454;51.984;9.838;2023-03-11T04:48:52;5.00;;;2.20;;
75820;SDS011;64454;51.984;9.838;2023-03-11T04:51:19;10.20;;;3.00;;
75820;SDS011;64454;51.984;9.838;2023-03-11T04:53:45;5.22;;;2.00;;
75820;SDS011;64454;51.984;9.838;2023-03-11T04:56:12;8.35;;;2.10;;
75820;SDS011;64454;51.984;9.838;2023-03-11T04:58:39;4.30;;;1.83;;
75820;SDS011;64454;51.984;9.838;2023-03-11T05:01:07;4.75;;;2.40;;
75820;SDS011;64454;51.984;9.838;2023-03-11T05:03:34;3.83;;;2.20;;
75820;SDS011;64454;51.984;9.838;2023-03-11T05:06:00;4.18;;;1.90;;
75820;SDS011;64454;51.984;9.838;2023-03-11T05:08:27;4.28;;;2.28;;
75820;SDS011;64454;51.984;9.838;2023-03-11T05:10:54;4.65;;;2.00;;
75820;SDS011;64454;51.984;9.838;2023-03-11T05:13:21;3.70;;;2.17;;
75820;SDS011;64454;51.984;9.838;2023-03-11T05:15:47;8.82;;;2.25;;
75820;SDS011;64454;51.984;9.838;2023-03-11T05:18:15;6.47;;;1.90;;
75820;SDS011;64454;51.984;9.838;2023-03-11T05:20:42;5.50;;;1.63;;
75820;SDS011;64454;51.984;9.838;2023-03-11T05:23:09;4.47;;;2.13;;
75820;SDS011;64454;51.984;9.838;2023-03-11T05:25:36;4.30;;;2.00;;
75820;SDS011;64454;51.984;9.838;2023-03-11T05:28:03;3.00;;;1.85;;
75820;SDS011;64454;51.984;9.838;2023-03-11T05:30:30;4.97;;;2.50;;
75820;SDS011;64454;51.984;9.838;2023-03-11T05:32:57;3.20;;;2.20;;
75820;SDS011;64454;51.984;9.838;2023-03-11T05:35:25;3.70;;;2.13;;
75820;SDS011;64454;51.984;9.838;2023-03-11T05:37:52;6.13;;;2.70;;
75820;SDS011;64454;51.984;9.838;2023-03-11T05:40:19;3.95;;;2.50;;
75820;SDS011;64454;51.984;9.838;2023-03-11T05:42:46;3.47;;;2.30;;
75820;SDS011;64454;51.984;9.838;2023-03-11T05:45:13;3.15;;;2.10;;
75820;SDS011;64454;51.984;9.838;2023-03-11T05:47:40;5.20;;;2.38;;
75820;SDS011;64454;51.984;9.838;2023-03-11T05:50:08;3.80;;;1.90;;
75820;SDS011;64454;51.984;9.838;2023-03-11T05:52:38;4.10;;;2.25;;
75820;SDS011;64454;51.984;9.838;2023-03-11T05:55:05;3.20;;;2.60;;
75820;SDS011;64454;51.984;9.838;2023-03-11T05:57:33;6.55;;;2.75;;
75820;SDS011;64454;51.984;9.838;2023-03-11T06:00:00;5.45;;;2.60;;
75820;SDS011;64454;51.984;9.838;2023-03-11T06:02:29;3.45;;;2.33;;
75820;SDS011;64454;51.984;9.838;2023-03-11T06:05:15;4.65;;;2.42;;
75820;SDS011;64454;51.984;9.838;2023-03-11T06:08:02;8.98;;;2.60;;
75820;SDS011;64454;51.984;9.838;2023-03-11T06:10:50;5.25;;;2.78;;
75820;SDS011;64454;51.984;9.838;2023-03-11T06:13:37;4.57;;;2.65;;
75820;SDS011;64454;51.984;9.838;2023-03-11T06:16:24;4.10;;;1.90;;
75820;SDS011;64454;51.984;9.838;2023-03-11T06:18:51;5.40;;;2.10;;
75820;SDS011;64454;51.984;9.838;2023-03-11T06:21:18;4.45;;;1.73;;
75820;SDS011;64454;51.984;9.838;2023-03-11T06:23:49;3.03;;;1.90;;
75820;SDS011;64454;51.984;9.838;2023-03-11T06:26:16;2.85;;;1.52;;
75820;SDS011;64454;51.984;9.838;2023-03-11T06:28:46;3.22;;;1.70;;
75820;SDS011;64454;51.984;9.838;2023-03-11T06:31:15;5.97;;;2.25;;
75820;SDS011;64454;51.984;9.838;2023-03-11T06:33:45;3.97;;;1.70;;
75820;SDS011;64454;51.984;9.838;2023-03-11T06:36:13;5.50;;;2.00;;
75820;SDS011;64454;51.984;9.838;2023-03-11T06:38:43;5.10;;;1.83;;
75820;SDS011;64454;51.984;9.838;2023-03-11T06:41:11;5.32;;;2.05;;
75820;SDS011;64454;51.984;9.838;2023-03-11T06:43:38;5.97;;;1.70;;
75820;SDS011;64454;51.984;9.838;2023-03-11T06:46:08;4.28;;;1.90;;
75820;SDS011;64454;51.984;9.838;2023-03-11T06:48:37;4.70;;;2.17;;
75820;SDS011;64454;51.984;9.838;2023-03-11T06:51:04;6.50;;;2.15;;
75820;SDS011;64454;51.984;9.838;2023-03-11T06:53:32;4.40;;;2.00;;
75820;SDS011;64454;51.984;9.838;2023-03-11T06:56:00;6.35;;;1.90;;
75820;SDS011;64454;51.984;9.838;2023-03-11T06:58:30;6.50;;;2.42;;
75820;SDS011;64454;51.984;9.838;2023-03-11T07:00:59;2.05;;;1.40;;
75820;SDS011;64454;51.984;9.838;2023-03-11T07:03:27;3.15;;;1.83;;
75820;SDS011;64454;51.984;9.838;2023-03-11T07:05:55;4.70;;;1.70;;
75820;SDS011;64454;51.984;9.838;2023-03-11T07:08:23;2.80;;;1.67;;
75820;SDS011;64454;51.984;9.838;2023-03-11T07:10:58;4.00;;;1.70;;
75820;SDS011;64454;51.984;9.838;2023-03-11T07:13:27;3.70;;;1.70;;
75820;SDS011;64454;51.984;9.838;2023-03-11T07:16:02;4.53;;;1.70;;
75820;SDS011;64454;51.984;9.838;2023-03-11T07:18:32;2.22;;;1.45;;
75820;SDS011;64454;51.984;9.838;2023-03-11T07:20:59;4.05;;;1.90;;
75820;SDS011;64454;51.984;9.838;2023-03-11T07:23:27;5.40;;;1.77;;
75820;SDS011;64454;51.984;9.838;2023-03-11T07:25:53;3.13;;;1.90;;
75820;SDS011;64454;51.984;9.838;2023-03-11T07:28:20;5.32;;;2.20;;
75820;SDS011;64454;51.984;9.838;2023-03-11T07:30:48;4.60;;;2.00;;
75820;SDS011;64454;51.984;9.838;2023-03-11T07:33:16;6.15;;;1.90;;
75820;SDS011;64454;51.984;9.838;2023-03-11T07:35:44;1.92;;;1.42;;
75820;SDS011;64454;51.984;9.838;2023-03-11T07:38:13;5.60;;;2.30;;
75820;SDS011;64454;51.984;9.838;2023-03-11T07:40:40;4.88;;;1.95;;
75820;SDS011;64454;51.984;9.838;2023-03-11T07:43:07;2.20;;;1.60;;
75820;SDS011;64454;51.984;9.838;2023-03-11T07:45:34;4.50;;;1.80;;
75820;SDS011;64454;51.984;9.838;2023-03-11T07:48:01;2.70;;;1.67;;
75820;SDS011;64454;51.984;9.838;2023-03-11T07:50:30;3.75;;;1.80;;
75820;SDS011;64454;51.984;9.838;2023-03-11T07:52:57;4.40;;;1.60;;
75820;SDS011;64454;51.984;9.838;2023-03-11T07:55:23;4.38;;;2.00;;
75820;SDS011;64454;51.984;9.838;2023-03-11T07:57:50;2.72;;;1.80;;
75820;SDS011;64454;51.984;9.838;2023-03-11T08:00:17;3.60;;;1.90;;
75820;SDS011;64454;51.984;9.838;2023-03-11T08:02:45;6.15;;;1.98;;
75820;SDS011;64454;51.984;9.838;2023-03-11T08:05:12;3.50;;;1.80;;
75820;SDS011;64454;51.984;9.838;2023-03-11T08:07:40;6.40;;;3.00;;
75820;SDS011;64454;51.984;9.838;2023-03-11T08:10:07;4.78;;;1.90;;
75820;SDS011;64454;51.984;9.838;2023-03-11T08:12:35;5.25;;;2.10;;
75820;SDS011;64454;51.984;9.838;2023-03-11T08:15:02;5.13;;;2.35;;
75820;SDS011;64454;51.984;9.838;2023-03-11T08:17:30;3.00;;;2.20;;
75820;SDS011;64454;51.984;9.838;2023-03-11T08:19:57;4.07;;;1.95;;
75820;SDS011;64454;51.984;9.838;2023-03-11T08:22:23;2.50;;;1.90;;
75820;SDS011;64454;51.984;9.838;2023-03-11T08:24:52;3.70;;;2.08;;
75820;SDS011;64454;51.984;9.838;2023-03-11T08:27:20;3.85;;;1.60;;
75820;SDS011;64454;51.984;9.838;2023-03-11T08:29:47;6.25;;;1.70;;
75820;SDS011;64454;51.984;9.838;2023-03-11T08:32:13;4.38;;;1.83;;
75820;SDS011;64454;51.984;9.838;2023-03-11T08:34:40;4.25;;;1.75;;
75820;SDS011;64454;51.984;9.838;2023-03-11T08:37:07;3.53;;;1.67;;
75820;SDS011;64454;51.984;9.838;2023-03-11T08:39:34;5.22;;;1.90;;
75820;SDS011;64454;51.984;9.838;2023-03-11T08:42:02;6.25;;;2.00;;
75820;SDS011;64454;51.984;9.838;2023-03-11T08:44:29;3.83;;;1.98;;
75820;SDS011;64454;51.984;9.838;2023-03-11T08:46:56;3.92;;;1.60;;
75820;SDS011;64454;51.984;9.838;2023-03-11T08:49:23;2.70;;;1.08;;
75820;SDS011;64454;51.984;9.838;2023-03-11T08:51:49;4.50;;;1.70;;
75820;SDS011;64454;51.984;9.838;2023-03-11T08:54:17;3.80;;;1.20;;
75820;SDS011;64454;51.984;9.838;2023-03-11T08:56:46;4.95;;;1.50;;
75820;SDS011;64454;51.984;9.838;2023-03-11T08:59:14;2.95;;;1.50;;
75820;SDS011;64454;51.984;9.838;2023-03-11T09:01:44;2.53;;;1.50;;
75820;SDS011;64454;51.984;9.838;2023-03-11T09:04:11;4.43;;;1.38;;
75820;SDS011;64454;51.984;9.838;2023-03-11T09:06:40;2.70;;;1.30;;
75820;SDS011;64454;51.984;9.838;2023-03-11T09:09:08;1.88;;;1.17;;
75820;SDS011;64454;51.984;9.838;2023-03-11T09:11:36;6.22;;;1.60;;
75820;SDS011;64454;51.984;9.838;2023-03-11T09:14:04;2.72;;;1.50;;
75820;SDS011;64454;51.984;9.838;2023-03-11T09:16:33;4.25;;;1.65;;
75820;SDS011;64454;51.984;9.838;2023-03-11T09:19:00;3.35;;;1.50;;
75820;SDS011;64454;51.984;9.838;2023-03-11T09:21:30;3.60;;;1.20;;
75820;SDS011;64454;51.984;9.838;2023-03-11T09:23:57;1.90;;;1.33;;
75820;SDS011;64454;51.984;9.838;2023-03-11T09:26:24;3.42;;;1.70;;
75820;SDS011;64454;51.984;9.838;2023-03-11T09:28:52;3.15;;;1.60;;
75820;SDS011;64454;51.984;9.838;2023-03-11T09:31:18;6.03;;;2.17;;
75820;SDS011;64454;51.984;9.838;2023-03-11T09:33:47;4.82;;;2.50;;
75820;SDS011;64454;51.984;9.838;2023-03-11T09:36:17;4.63;;;1.83;;
75820;SDS011;64454;51.984;9.838;2023-03-11T09:38:45;4.70;;;1.55;;
75820;SDS011;64454;51.984;9.838;2023-03-11T09:41:17;3.28;;;1.90;;
75820;SDS011;64454;51.984;9.838;2023-03-11T09:43:59;4.10;;;1.80;;
75820;SDS011;64454;51.984;9.838;2023-03-11T09:46:49;5.95;;;1.75;;
75820;SDS011;64454;51.984;9.838;2023-03-11T09:49:53;3.13;;;1.80;;
75820;SDS011;64454;51.984;9.838;2023-03-11T09:52:39;4.20;;;1.90;;
75820;SDS011;64454;51.984;9.838;2023-03-11T09:55:20;3.77;;;1.80;;
75820;SDS011;64454;51.984;9.838;2023-03-11T09:58:07;4.20;;;1.60;;
75820;SDS011;64454;51.984;9.838;2023-03-11T10:00:39;3.28;;;1.40;;
75820;SDS011;64454;51.984;9.838;2023-03-11T10:03:10;4.57;;;1.58;;
75820;SDS011;64454;51.984;9.838;2023-03-11T10:05:52;2.37;;;1.50;;
75820;SDS011;64454;51.984;9.838;2023-03-11T10:08:27;2.50;;;1.40;;
75820;SDS011;64454;51.984;9.838;2023-03-11T10:11:00;3.45;;;1.60;;
75820;SDS011;64454;51.984;9.838;2023-03-11T10:13:43;4.97;;;1.92;;
75820;SDS011;64454;51.984;9.838;2023-03-11T10:16:23;6.30;;;1.88;;
75820;SDS011;64454;51.984;9.838;2023-03-11T10:18:59;5.70;;;1.58;;
75820;SDS011;64454;51.984;9.838;2023-03-11T10:21:40;3.47;;;1.90;;
75820;SDS011;64454;51.984;9.838;2023-03-11T10:24:26;4.20;;;1.80;;
75820;SDS011;64454;51.984;9.838;2023-03-11T10:27:12;5.13;;;1.90;;
75820;SDS011;64454;51.984;9.838;2023-03-11T10:29:44;4.30;;;2.40;;
75820;SDS011;64454;51.984;9.838;2023-03-11T10:32:20;5.00;;;1.80;;
75820;SDS011;64454;51.984;9.838;2023-03-11T10:34:55;6.82;;;2.00;;
75820;SDS011;64454;51.984;9.838;2023-03-11T10:37:31;4.85;;;1.40;;
75820;SDS011;64454;51.984;9.838;2023-03-11T10:40:06;2.60;;;1.55;;
75820;SDS011;64454;51.984;9.838;2023-03-11T10:42:44;4.75;;;1.80;;
75820;SDS011;64454;51.984;9.838;2023-03-11T10:45:13;2.95;;;1.52;;
75820;SDS011;64454;51.984;9.838;2023-03-11T10:47:40;5.07;;;1.65;;
75820;SDS011;64454;51.984;9.838;2023-03-11T10:50:08;2.80;;;1.80;;
75820;SDS011;64454;51.984;9.838;2023-03-11T10:52:42;2.30;;;1.40;;
75820;SDS011;64454;51.984;9.838;2023-03-11T10:55:30;7.00;;;1.70;;
75820;SDS011;64454;51.984;9.838;2023-03-11T10:58:02;5.00;;;1.60;;
75820;SDS011;64454;51.984;9.838;2023-03-11T11:00:32;2.55;;;1.40;;
75820;SDS011;64454;51.984;9.838;2023-03-11T11:02:59;5.10;;;2.00;;
75820;SDS011;64454;51.984;9.838;2023-03-11T11:05:28;2.45;;;1.50;;
75820;SDS011;64454;51.984;9.838;2023-03-11T11:08:03;3.80;;;1.70;;
75820;SDS011;64454;51.984;9.838;2023-03-11T11:10:33;1.73;;;0.95;;
75820;SDS011;64454;51.984;9.838;2023-03-11T11:13:02;3.65;;;1.48;;
75820;SDS011;64454;51.984;9.838;2023-03-11T11:15:51;5.25;;;1.50;;
75820;SDS011;64454;51.984;9.838;2023-03-11T11:18:25;4.53;;;1.40;;
75820;SDS011;64454;51.984;9.838;2023-03-11T11:20:57;4.95;;;2.00;;
75820;SDS011;64454;51.984;9.838;2023-03-11T11:23:37;2.75;;;1.33;;
75820;SDS011;64454;51.984;9.838;2023-03-11T11:26:13;1.65;;;1.13;;
75820;SDS011;64454;51.984;9.838;2023-03-11T11:28:44;2.60;;;1.10;;
75820;SDS011;64454;51.984;9.838;2023-03-11T11:31:22;3.45;;;1.60;;
75820;SDS011;64454;51.984;9.838;2023-03-11T11:33:51;5.65;;;1.77;;
75820;SDS011;64454;51.984;9.838;2023-03-11T11:36:21;2.80;;;1.80;;
75820;SDS011;64454;51.984;9.838;2023-03-11T11:38:54;3.83;;;1.40;;
75820;SDS011;64454;51.984;9.838;2023-03-11T11:41:22;2.55;;;1.17;;
75820;SDS011;64454;51.984;9.838;2023-03-11T11:43:52;4.07;;;1.45;;
75820;SDS011;64454;51.984;9.838;2023-03-11T11:46:24;3.27;;;1.20;;
75820;SDS011;64454;51.984;9.838;2023-03-11T11:48:59;2.08;;;1.20;;
75820;SDS011;64454;51.984;9.838;2023-03-11T11:51:40;3.53;;;1.52;;
75820;SDS011;64454;51.984;9.838;2023-03-11T11:54:17;3.13;;;1.00;;
75820;SDS011;64454;51.984;9.838;2023-03-11T11:56:53;4.30;;;1.30;;
75820;SDS011;64454;51.984;9.838;2023-03-11T11:59:21;3.70;;;1.63;;
75820;SDS011;64454;51.984;9.838;2023-03-11T12:01:58;3.80;;;1.50;;
75820;SDS011;64454;51.984;9.838;2023-03-11T12:04:49;3.80;;;1.30;;
75820;SDS011;64454;51.984;9.838;2023-03-11T12:07:24;6.97;;;2.00;;
75820;SDS011;64454;51.984;9.838;2023-03-11T12:10:12;3.87;;;2.00;;
75820;SDS011;64454;51.984;9.838;2023-03-11T12:13:08;4.10;;;1.20;;
75820;SDS011;64454;51.984;9.838;2023-03-11T12:16:10;4.25;;;1.48;;
75820;SDS011;64454;51.984;9.838;2023-03-11T12:18:49;3.65;;;1.20;;
75820;SDS011;64454;51.984;9.838;2023-03-11T12:21:28;3.03;;;1.58;;
75820;SDS011;64454;51.984;9.838;2023-03-11T12:24:21;3.13;;;1.20;;
75820;SDS011;64454;51.984;9.838;2023-03-11T12:27:11;4.20;;;1.30;;
75820;SDS011;64454;51.984;9.838;2023-03-11T12:29:46;2.00;;;1.08;;
75820;SDS011;64454;51.984;9.838;2023-03-11T12:32:21;3.38;;;1.38;;
75820;SDS011;64454;51.984;9.838;2023-03-11T12:34:59;5.43;;;1.55;;
75820;SDS011;64454;51.984;9.838;2023-03-11T12:37:29;3.90;;;1.60;;
75820;SDS011;64454;51.984;9.838;2023-03-11T12:39:56;5.85;;;1.40;;
75820;SDS011;64454;51.984;9.838;2023-03-11T12:42:25;2.10;;;1.10;;
75820;SDS011;64454;51.984;9.838;2023-03-11T12:48:23;5.70;;;3.20;;
75820;SDS011;64454;51.984;9.838;2023-03-11T12:51:01;3.45;;;1.60;;
75820;SDS011;64454;51.984;9.838;2023-03-11T12:53:42;2.30;;;1.20;;
75820;SDS011;64454;51.984;9.838;2023-03-11T12:56:21;9.70;;;6.35;;
75820;SDS011;64454;51.984;9.838;2023-03-11T12:59:08;35.80;;;27.15;;
75820;SDS011;64454;51.984;9.838;2023-03-11T13:02:03;12.43;;;10.93;;
75820;SDS011;64454;51.984;9.838;2023-03-11T13:04:54;15.52;;;14.02;;
75820;SDS011;64454;51.984;9.838;2023-03-11T13:07:34;8.55;;;7.75;;
75820;SDS011;64454;51.984;9.838;2023-03-11T13:10:12;4.57;;;1.90;;
75820;SDS011;64454;51.984;9.838;2023-03-11T13:13:01;3.03;;;1.90;;
75820;SDS011;64454;51.984;9.838;2023-03-11T13:25:41;3.25;;;1.95;;
75820;SDS011;64454;51.984;9.838;2023-03-11T13:28:34;4.45;;;1.90;;
75820;SDS011;64454;51.984;9.838;2023-03-11T13:31:30;2.95;;;1.20;;
75820;SDS011;64454;51.984;9.838;2023-03-11T13:34:12;4.05;;;1.00;;
75820;SDS011;64454;51.984;9.838;2023-03-11T13:36:45;3.00;;;1.00;;
75820;SDS011;64454;51.984;9.838;2023-03-11T13:39:38;2.80;;;1.10;;
75820;SDS011;64454;51.984;9.838;2023-03-11T13:42:26;2.33;;;1.00;;
75820;SDS011;64454;51.984;9.838;2023-03-11T13:44:59;3.20;;;1.20;;
75820;SDS011;64454;51.984;9.838;2023-03-11T13:47:30;3.05;;;0.90;;
75820;SDS011;64454;51.984;9.838;2023-03-11T13:50:02;2.70;;;1.00;;
75820;SDS011;64454;51.984;9.838;2023-03-11T13:52:35;4.43;;;1.00;;
75820;SDS011;64454;51.984;9.838;2023-03-11T13:55:14;2.90;;;1.27;;
75820;SDS011;64454;51.984;9.838;2023-03-11T13:57:48;1.85;;;0.90;;
75820;SDS011;64454;51.984;9.838;2023-03-11T14:00:17;3.53;;;1.10;;
75820;SDS011;64454;51.984;9.838;2023-03-11T14:02:49;2.80;;;1.60;;
75820;SDS011;64454;51.984;9.838;2023-03-11T14:05:21;4.00;;;1.50;;
75820;SDS011;64454;51.984;9.838;2023-03-11T14:07:50;3.42;;;1.60;;
75820;SDS011;64454;51.984;9.838;2023-03-11T14:10:20;2.33;;;1.65;;
75820;SDS011;64454;51.984;9.838;2023-03-11T14:12:50;7.28;;;3.78;;
75820;SDS011;64454;51.984;9.838;2023-03-11T14:15:29;6.55;;;4.95;;
75820;SDS011;64454;51.984;9.838;2023-03-11T14:18:25;4.20;;;2.90;;
75820;SDS011;64454;51.984;9.838;2023-03-11T14:20:58;4.10;;;2.20;;
75820;SDS011;64454;51.984;9.838;2023-03-11T14:23:27;5.35;;;2.20;;
75820;SDS011;64454;51.984;9.838;2023-03-11T14:25:59;4.25;;;1.30;;
75820;SDS011;64454;51.984;9.838;2023-03-11T14:28:30;10.87;;;4.13;;
75820;SDS011;64454;51.984;9.838;2023-03-11T14:31:01;5.45;;;2.20;;
75820;SDS011;64454;51.984;9.838;2023-03-11T14:33:31;5.50;;;1.55;;
75820;SDS011;64454;51.984;9.838;2023-03-11T14:35:59;14.70;;;4.00;;
75820;SDS011;64454;51.984;9.838;2023-03-11T14:38:30;3.08;;;1.40;;
75820;SDS011;64454;51.984;9.838;2023-03-11T14:40:59;12.33;;;5.50;;
75820;SDS011;64454;51.984;9.838;2023-03-11T14:43:31;9.10;;;4.68;;
75820;SDS011;64454;51.984;9.838;2023-03-11T14:46:02;5.00;;;2.88;;
75820;SDS011;64454;51.984;9.838;2023-03-11T14:48:35;3.42;;;2.00;;
75820;SDS011;64454;51.984;9.838;2023-03-11T14:51:07;6.22;;;2.95;;
75820;SDS011;64454;51.984;9.838;2023-03-11T14:53:43;3.28;;;1.08;;
75820;SDS011;64454;51.984;9.838;2023-03-11T14:56:15;2.90;;;1.30;;
75820;SDS011;64454;51.984;9.838;2023-03-11T14:58:47;2.60;;;1.60;;
75820;SDS011;64454;51.984;9.838;2023-03-11T15:01:21;2.70;;;1.10;;
75820;SDS011;64454;51.984;9.838;2023-03-11T15:03:54;4.25;;;1.10;;
75820;SDS011;64454;51.984;9.838;2023-03-11T15:06:27;3.92;;;1.20;;
75820;SDS011;64454;51.984;9.838;2023-03-11T15:08:56;4.30;;;1.00;;
75820;SDS011;64454;51.984;9.838;2023-03-11T15:11:27;2.63;;;1.10;;
75820;SDS011;64454;51.984;9.838;2023-03-11T15:14:07;1.75;;;1.10;;
75820;SDS011;64454;51.984;9.838;2023-03-11T15:16:45;3.90;;;1.27;;
75820;SDS011;64454;51.984;9.838;2023-03-11T15:19:21;4.13;;;1.00;;
75820;SDS011;64454;51.984;9.838;2023-03-11T15:21:58;2.80;;;1.10;;
75820;SDS011;64454;51.984;9.838;2023-03-11T15:24:31;2.13;;;0.90;;
75820;SDS011;64454;51.984;9.838;2023-03-11T15:27:00;4.43;;;0.97;;
75820;SDS011;64454;51.984;9.838;2023-03-11T15:29:31;1.77;;;0.90;;